This is the latest recevied weather packets stored in our database for station/object DW2488. If no packets are shown the sender has not sent any weather packets the latest 10 day(s).
| Time | Temp. | Humidity | Pressure | Rain* | Wind** | Luminosity | Snow |
|---|---|---|---|---|---|---|---|
| 1778025792 | 18.33° C | 64% | 1020.8 hPa | 0 mm | - | 529 W/m² | - |
| 1778024892 | 17.22° C | 65% | 1020.8 hPa | 0 mm | - | 501 W/m² | - |
| 1778023992 | 16.11° C | 69% | 1021 hPa | 0 mm | - | 343 W/m² | - |
| 1778023090 | 15° C | 71% | 1020.9 hPa | 0 mm | - | 432 W/m² | - |
| 1778022190 | 13.33° C | 75% | 1020.9 hPa | 0 mm | - | 396 W/m² | - |
| 1778021291 | 11.67° C | 79% | 1020.8 hPa | 0 mm | - | 90 W/m² | - |
| 1778020390 | 10.56° C | 82% | 1020.8 hPa | 0 mm | - | 62 W/m² | - |
| 1778019491 | 10° C | 82% | 1020.8 hPa | 0 mm | - | 26 W/m² | - |
| 1778018591 | 9.44° C | 83% | 1020.9 hPa | 0 mm | - | 25 W/m² | - |
| 1778017690 | 8.89° C | 84% | 1020.7 hPa | 0 mm | - | 30 W/m² | - |
| 1778016791 | 8.33° C | 84% | 1020.7 hPa | 0 mm | - | 19 W/m² | - |
| 1778015897 | 8.33° C | 84% | 1020.7 hPa | 0 mm | - | 18 W/m² | - |
| 1778014991 | 7.78° C | 84% | 1020.6 hPa | 0 mm | - | 12 W/m² | - |
| 1778014098 | 7.78° C | 84% | 1020.6 hPa | 0 mm | - | 9 W/m² | - |
| 1778013192 | 7.78° C | 83% | 1020.5 hPa | 0 mm | - | 0 W/m² | - |
| 1778012298 | 7.78° C | 83% | 1020.5 hPa | 0 mm | - | 0 W/m² | - |
| 1778011392 | 7.78° C | 83% | 1020.4 hPa | 0 mm | - | 0 W/m² | - |
| 1778010492 | 7.78° C | 83% | 1020.3 hPa | 0 mm | - | 0 W/m² | - |
| 1778009592 | 8.33° C | 83% | 1020.4 hPa | 0 mm | - | 0 W/m² | - |
| 1778008698 | 8.33° C | 83% | 1020.3 hPa | 0 mm | - | 0 W/m² | - |
| 1778007790 | 8.33° C | 83% | 1020.4 hPa | 0 mm | - | 0 W/m² | - |
| 1778006891 | 8.33° C | 83% | 1020.2 hPa | 0 mm | - | 0 W/m² | - |
| 1778005996 | 8.33° C | 82% | 1020.2 hPa | 0 mm | - | 0 W/m² | - |
| 1778005092 | 8.33° C | 82% | 1020.2 hPa | 0 mm | - | 0 W/m² | - |
| 1778004198 | 8.33° C | 82% | 1020.2 hPa | 0 mm | - | 0 W/m² | - |
* Rain latest hour (hover to see other rain measurements)
** Current wind speed in m/s (hover to see current wind gust speed)